createdAt,value
2022-12-23T00:01:25.600Z,100031.38
2022-12-23T00:03:58.861Z,100042.13
2022-12-23T00:06:27.365Z,100042.25
2022-12-23T00:08:58.629Z,100038.44
2022-12-23T00:11:28.602Z,100038.44
2022-12-23T00:14:20.673Z,100029.81
2022-12-23T00:16:49.999Z,100021.34
2022-12-23T00:19:19.413Z,100038.09
2022-12-23T00:21:48.452Z,100021.44
2022-12-23T00:24:16.482Z,100014.88
2022-12-23T00:26:44.293Z,100027.31
2022-12-23T00:29:12.133Z,100028.47
2022-12-23T00:31:40.150Z,100045.91
2022-12-23T00:34:08.164Z,100042.38
2022-12-23T00:36:38.445Z,100044.75
2022-12-23T00:39:23.559Z,100042.03
2022-12-23T00:42:08.970Z,100038.88
2022-12-23T00:44:36.783Z,100037.75
2022-12-23T00:47:04.586Z,100040.00
2022-12-23T00:49:43.295Z,100033.78
2022-12-23T00:52:15.623Z,100043.88
2022-12-23T00:54:43.794Z,100043.06
2022-12-23T00:57:12.041Z,100056.31
2022-12-23T00:59:40.070Z,100054.72
2022-12-23T01:02:25.634Z,100050.09
2022-12-23T01:05:10.728Z,100048.81
2022-12-23T01:07:39.982Z,100054.72
2022-12-23T01:10:09.568Z,100063.31
2022-12-23T01:12:37.428Z,100062.53
2022-12-23T01:15:06.044Z,100064.91
2022-12-23T01:17:33.860Z,100068.75
2022-12-23T01:20:01.742Z,100072.59
2022-12-23T01:22:29.737Z,100080.28
2022-12-23T01:24:59.091Z,100081.88
2022-12-23T01:27:26.907Z,100080.28
2022-12-23T01:29:56.554Z,100088.75
2022-12-23T01:32:24.405Z,100079.81
2022-12-23T01:34:52.269Z,100091.13
2022-12-23T01:37:20.158Z,100090.34
2022-12-23T01:39:48.025Z,100090.69
2022-12-23T01:42:36.464Z,100091.81
2022-12-23T01:45:13.069Z,100092.59
2022-12-23T01:47:45.604Z,100096.91
2022-12-23T01:50:18.345Z,100107.44
2022-12-23T01:52:51.674Z,100100.91
2022-12-23T01:55:24.707Z,100097.03
2022-12-23T01:57:56.370Z,100099.41
2022-12-23T02:00:44.257Z,100092.06
2022-12-23T02:03:29.763Z,100096.72
2022-12-23T02:06:21.069Z,100102.94
2022-12-23T02:09:06.577Z,100097.50
2022-12-23T02:11:52.204Z,100092.06
2022-12-23T02:14:56.028Z,100098.97
2022-12-23T02:17:28.924Z,100105.97
2022-12-23T02:20:30.692Z,100106.63
2022-12-23T02:23:26.602Z,100107.44
2022-12-23T02:26:29.275Z,100111.28
2022-12-23T02:29:16.449Z,100109.03
2022-12-23T02:31:53.569Z,100114.13
2022-12-23T02:34:30.195Z,100118.44
2022-12-23T02:37:06.173Z,100123.06
2022-12-23T02:39:40.365Z,100129.63
2022-12-23T02:42:12.782Z,100131.69
2022-12-23T02:44:46.224Z,100137.91
2022-12-23T02:47:20.930Z,100140.28
2022-12-23T02:49:53.419Z,100141.88
2022-12-23T02:52:25.408Z,100145.72
2022-12-23T02:54:58.481Z,100149.56
2022-12-23T02:57:30.405Z,100147.97
2022-12-23T03:00:00.060Z,100150.69
2022-12-23T03:02:29.446Z,100158.84
2022-12-23T03:04:57.434Z,100159.97
2022-12-23T03:07:31.866Z,100157.25
2022-12-23T03:10:09.619Z,100162.22
2022-12-23T03:12:52.573Z,100168.78
2022-12-23T03:15:34.356Z,100170.03
2022-12-23T03:18:09.110Z,100176.72
2022-12-23T03:20:45.232Z,100177.50
2022-12-23T03:23:22.855Z,100182.16
2022-12-23T03:25:59.064Z,100200.03
2022-12-23T03:28:34.585Z,100196.41
2022-12-23T03:31:04.890Z,100199.56
2022-12-23T03:33:38.258Z,100199.25
2022-12-23T03:36:11.929Z,100201.66
2022-12-23T03:38:42.674Z,100190.78
2022-12-23T03:41:17.101Z,100194.59
2022-12-23T03:43:51.029Z,100184.88
2022-12-23T03:46:25.548Z,100188.72
2022-12-23T03:48:59.825Z,100184.56
2022-12-23T03:51:33.044Z,100182.94
2022-12-23T03:54:04.830Z,100179.91
2022-12-23T03:56:37.501Z,100185.34
2022-12-23T03:59:12.961Z,100191.44
2022-12-23T04:01:52.077Z,100186.00
2022-12-23T04:04:27.866Z,100180.56
2022-12-23T04:07:02.171Z,100179.31
2022-12-23T04:09:30.452Z,100180.91
2022-12-23T04:11:59.691Z,100180.44
2022-12-23T04:14:27.577Z,100192.09
2022-12-23T04:16:58.291Z,100192.44
2022-12-23T04:19:27.726Z,100198.66
2022-12-23T04:21:57.699Z,100194.81
2022-12-23T04:24:25.510Z,100194.94
2022-12-23T04:26:53.360Z,100191.88
2022-12-23T04:29:21.213Z,100193.00
2022-12-23T04:31:49.270Z,100199.25
2022-12-23T04:34:17.480Z,100191.44
2022-12-23T04:36:46.741Z,100196.06
2022-12-23T04:39:14.769Z,100200.72
2022-12-23T04:41:42.661Z,100201.38
2022-12-23T04:44:10.614Z,100199.78
2022-12-23T04:46:39.092Z,100197.88
2022-12-23T04:49:07.087Z,100198.97
2022-12-23T04:51:35.327Z,100202.47
2022-12-23T04:54:05.057Z,100200.59
2022-12-23T04:56:32.909Z,100208.25
2022-12-23T04:59:02.347Z,100203.63
2022-12-23T05:01:30.500Z,100211.75
2022-12-23T05:03:58.420Z,100206.34
2022-12-23T05:06:26.401Z,100214.47
2022-12-23T05:08:54.334Z,100216.06
2022-12-23T05:11:24.165Z,100217.34
2022-12-23T05:13:52.208Z,100214.97
2022-12-23T05:16:20.164Z,100223.91
2022-12-23T05:18:48.150Z,100210.63
2022-12-23T05:21:16.213Z,100206.81
2022-12-23T05:23:44.107Z,100204.75
2022-12-23T05:26:12.103Z,100203.63
2022-12-23T05:28:42.953Z,100206.66
2022-12-23T05:31:11.700Z,100205.88
2022-12-23T05:33:40.230Z,100202.03
2022-12-23T05:36:08.646Z,100199.66
2022-12-23T05:38:36.592Z,100198.84
2022-12-23T05:41:05.046Z,100209.72
2022-12-23T05:43:33.068Z,100209.72
2022-12-23T05:46:02.245Z,100218.31
2022-12-23T05:48:30.089Z,100225.34
2022-12-23T05:50:58.037Z,100229.19
2022-12-23T05:53:25.869Z,100242.75
2022-12-23T05:55:53.754Z,100250.91
2022-12-23T05:58:21.659Z,100245.94
2022-12-23T06:00:49.632Z,100251.06
2022-12-23T06:03:19.213Z,100255.69
2022-12-23T06:05:51.275Z,100253.63
2022-12-23T06:08:19.391Z,100254.09
2022-12-23T06:10:47.659Z,100263.38
2022-12-23T06:13:15.611Z,100261.78
2022-12-23T06:15:43.452Z,100254.75
2022-12-23T06:18:11.484Z,100264.03
2022-12-23T06:20:40.909Z,100277.16
2022-12-23T06:23:08.849Z,100280.34
2022-12-23T06:25:36.822Z,100271.72
2022-12-23T06:28:05.067Z,100277.94
2022-12-23T06:30:32.885Z,100273.97
2022-12-23T06:33:00.768Z,100267.41
2022-12-23T06:35:28.581Z,100263.09
2022-12-23T06:37:57.953Z,100258.78
2022-12-23T06:40:25.878Z,100248.38
2022-12-23T06:42:53.699Z,100255.44
2022-12-23T06:45:21.555Z,100252.38
2022-12-23T06:47:49.357Z,100243.91
2022-12-23T06:50:17.404Z,100239.59
2022-12-23T06:52:46.695Z,100233.81
2022-12-23T06:55:16.391Z,100233.03
2022-12-23T06:57:44.185Z,100234.97
2022-12-23T07:00:13.495Z,100239.13
2022-12-23T07:02:41.506Z,100239.13
2022-12-23T07:05:10.256Z,100238.34
2022-12-23T07:07:38.056Z,100253.03
2022-12-23T07:10:07.000Z,100253.81
2022-12-23T07:12:37.773Z,100256.88
2022-12-23T07:15:07.559Z,100268.53
2022-12-23T07:17:35.433Z,100276.22
2022-12-23T07:20:03.807Z,100286.41
2022-12-23T07:22:31.679Z,100291.84
2022-12-23T07:24:59.722Z,100304.31
2022-12-23T07:27:27.524Z,100313.56
2022-12-23T07:29:57.117Z,100320.63
2022-12-23T07:32:25.381Z,100326.84
2022-12-23T07:34:53.189Z,100331.94
2022-12-23T07:37:21.105Z,100338.16
2022-12-23T07:39:48.941Z,100334.19
2022-12-23T07:42:43.397Z,100329.22
2022-12-23T07:45:07.534Z,100335.78
2022-12-23T07:47:35.378Z,100327.13
2022-12-23T07:50:03.233Z,100322.84
2022-12-23T07:52:31.097Z,100325.09
2022-12-23T07:54:58.975Z,100319.66
2022-12-23T07:57:27.083Z,100316.50
2022-12-23T07:59:55.336Z,100313.78
2022-12-23T08:02:25.476Z,100312.63
2022-12-23T08:04:53.671Z,100306.75
2022-12-23T08:07:21.563Z,100317.63
2022-12-23T08:09:49.575Z,100313.28
2022-12-23T08:12:17.540Z,100303.25
2022-12-23T08:14:45.959Z,100311.06
2022-12-23T08:17:13.960Z,100315.34
2022-12-23T08:19:43.230Z,100318.06
2022-12-23T08:22:11.074Z,100312.63
2022-12-23T08:24:39.009Z,100315.81
2022-12-23T08:27:06.851Z,100316.63
2022-12-23T08:29:36.644Z,100320.13
2022-12-23T08:32:04.839Z,100311.97
2022-12-23T08:34:32.694Z,100315.81
2022-12-23T08:37:02.222Z,100309.59
2022-12-23T08:39:30.460Z,100306.09
2022-12-23T08:41:58.385Z,100311.97
2022-12-23T08:44:28.190Z,100292.66
2022-12-23T08:46:56.559Z,100281.78
2022-12-23T08:49:24.585Z,100293.44
2022-12-23T08:51:52.454Z,100309.75
2022-12-23T08:54:22.256Z,100301.13
2022-12-23T08:56:50.672Z,100311.97
2022-12-23T08:59:20.051Z,100311.97
2022-12-23T09:01:48.872Z,100298.41
2022-12-23T09:04:17.282Z,100304.31
2022-12-23T09:06:46.635Z,100305.91
2022-12-23T09:09:15.713Z,100300.47
2022-12-23T09:11:45.037Z,100305.22
2022-12-23T09:14:13.110Z,100295.97
2022-12-23T09:16:41.404Z,100294.81
2022-12-23T09:19:09.273Z,100297.25
2022-12-23T09:21:37.494Z,100298.03
2022-12-23T09:24:06.063Z,100296.44
2022-12-23T09:26:33.919Z,100292.13
2022-12-23T09:29:03.220Z,100300.75
2022-12-23T09:31:36.845Z,100293.72
2022-12-23T09:34:06.401Z,100289.88
2022-12-23T09:36:34.376Z,100286.69
2022-12-23T09:39:02.290Z,100286.69
2022-12-23T09:41:43.036Z,100277.44
2022-12-23T09:44:26.593Z,100278.06
2022-12-23T09:46:57.885Z,100276.50
2022-12-23T09:49:25.866Z,100269.47
2022-12-23T09:52:00.365Z,100281.91
2022-12-23T09:54:29.872Z,100285.09
2022-12-23T09:57:01.790Z,100279.03
2022-12-23T09:59:48.470Z,100270.88
2022-12-23T10:02:25.354Z,100262.06
2022-12-23T10:05:03.015Z,100265.22
2022-12-23T10:07:36.825Z,100251.63
2022-12-23T10:10:13.213Z,100248.91
2022-12-23T10:12:45.172Z,100242.06
2022-12-23T10:15:23.299Z,100236.63
2022-12-23T10:17:55.027Z,100229.72
2022-12-23T10:20:33.778Z,100228.94
2022-12-23T10:23:01.822Z,100220.44
2022-12-23T10:25:36.315Z,100207.19
2022-12-23T10:28:04.668Z,100202.56
2022-12-23T10:31:17.170Z,100194.41
2022-12-23T10:33:37.647Z,100182.28
2022-12-23T10:36:13.977Z,100185.00
2022-12-23T10:38:52.177Z,100185.00
2022-12-23T10:41:31.570Z,100191.69
2022-12-23T10:44:30.639Z,100188.19
2022-12-23T10:47:10.456Z,100185.59
2022-12-23T10:49:49.468Z,100188.78
2022-12-23T10:52:21.026Z,100191.16
2022-12-23T10:54:49.411Z,100189.91
2022-12-23T10:57:20.179Z,100173.59
2022-12-23T10:59:48.227Z,100168.81
2022-12-23T11:02:34.804Z,100158.63
2022-12-23T11:05:02.846Z,100156.81
2022-12-23T11:07:47.252Z,100155.25
2022-12-23T11:10:18.961Z,100148.22
2022-12-23T11:12:49.756Z,100149.81
2022-12-23T11:15:30.753Z,100139.63
2022-12-23T11:18:06.565Z,100136.72
2022-12-23T11:20:36.583Z,100145.31
2022-12-23T11:23:06.922Z,100129.91
2022-12-23T11:25:40.473Z,100128.81
2022-12-23T11:28:16.181Z,100120.66
2022-12-23T11:30:56.672Z,100118.41
2022-12-23T11:33:28.697Z,100119.63
2022-12-23T11:36:09.193Z,100114.53
2022-12-23T11:38:39.268Z,100115.47
2022-12-23T11:41:07.469Z,100115.47
2022-12-23T11:43:35.594Z,100111.63
2022-12-23T11:46:25.634Z,100096.22
2022-12-23T11:49:08.092Z,100087.72
2022-12-23T11:51:36.145Z,100072.66
2022-12-23T11:54:04.871Z,100061.78
2022-12-23T11:56:38.546Z,100067.22
2022-12-23T11:59:09.620Z,100040.84
2022-12-23T12:01:39.431Z,100032.34
2022-12-23T12:04:11.397Z,100023.09
2022-12-23T12:06:48.420Z,100014.94
2022-12-23T12:09:23.654Z,100006.09
2022-12-23T12:11:54.641Z,100006.09
2022-12-23T12:14:29.457Z,100012.31
2022-12-23T12:17:03.334Z,100006.22
2022-12-23T12:19:37.337Z,100004.41
2022-12-23T12:22:13.181Z,99995.91
2022-12-23T12:24:45.647Z,99992.53
2022-12-23T12:27:13.453Z,99987.09
2022-12-23T12:29:47.689Z,99985.50
2022-12-23T12:32:22.141Z,99990.59
2022-12-23T12:34:57.071Z,99991.03
2022-12-23T12:37:36.779Z,99983.25
2022-12-23T12:40:13.527Z,99979.72
2022-12-23T12:42:43.080Z,99971.00
2022-12-23T12:45:17.583Z,99974.41
2022-12-23T12:47:58.162Z,99972.81
2022-12-23T12:50:34.831Z,99972.34
2022-12-23T12:53:12.671Z,99959.91
2022-12-23T12:55:46.391Z,99950.03
2022-12-23T12:58:20.836Z,99940.66
2022-12-23T13:01:03.991Z,99934.78
2022-12-23T13:03:57.516Z,99922.22
2022-12-23T13:06:34.235Z,99920.28
2022-12-23T13:09:07.432Z,99905.56
2022-12-23T13:11:45.208Z,99903.97
2022-12-23T13:14:25.887Z,99893.13
2022-12-23T13:17:05.439Z,99890.84
2022-12-23T13:19:42.713Z,99874.44
2022-12-23T13:22:16.820Z,99869.81
2022-12-23T13:24:56.015Z,99854.06
2022-12-23T13:27:32.760Z,99854.88
2022-12-23T13:30:06.857Z,99846.28
2022-12-23T13:33:01.870Z,99857.94
2022-12-23T13:35:40.249Z,99848.66
2022-12-23T13:38:23.275Z,99844.69
2022-12-23T13:41:03.090Z,99844.22
2022-12-23T13:43:47.131Z,99835.19
2022-12-23T13:46:25.028Z,99828.97
2022-12-23T13:49:00.924Z,99831.34
2022-12-23T13:51:41.509Z,99825.47
2022-12-23T13:54:23.012Z,99783.16
2022-12-23T13:56:59.621Z,99773.50
2022-12-23T13:59:39.065Z,99767.28
2022-12-23T14:02:43.729Z,99762.88
2022-12-23T14:05:35.157Z,99773.38
2022-12-23T14:08:05.869Z,99763.34
2022-12-23T14:10:36.463Z,99756.44
2022-12-23T14:13:08.540Z,99758.72
2022-12-23T14:16:18.038Z,99743.56
2022-12-23T14:19:07.912Z,99740.84
2022-12-23T14:21:44.439Z,99749.44
2022-12-23T14:24:37.258Z,99740.38
2022-12-23T14:27:34.888Z,99737.22
2022-12-23T14:30:15.300Z,99729.50
2022-12-23T14:32:48.280Z,99721.38
2022-12-23T14:35:26.165Z,99719.78
2022-12-23T14:38:26.291Z,99711.44
2022-12-23T14:41:28.668Z,99712.34
2022-12-23T14:44:02.714Z,99701.94
2022-12-23T14:46:56.119Z,99680.44
2022-12-23T14:49:40.450Z,99680.22
2022-12-23T14:52:49.290Z,99678.41
2022-12-23T14:55:48.842Z,99675.34
2022-12-23T14:58:43.040Z,99684.75
2022-12-23T15:01:13.474Z,99664.72
2022-12-23T15:03:47.046Z,99668.91
2022-12-23T15:06:20.287Z,99673.19
2022-12-23T15:08:50.065Z,99671.72
2022-12-23T15:11:23.498Z,99672.19
2022-12-23T15:13:54.132Z,99673.41
2022-12-23T15:16:30.760Z,99651.59
2022-12-23T15:19:03.387Z,99657.81
2022-12-23T15:21:33.638Z,99649.66
2022-12-23T15:24:01.617Z,99643.09
2022-12-23T15:26:32.452Z,99658.69
2022-12-23T15:29:01.537Z,99665.69
2022-12-23T15:31:32.705Z,99670.47
2022-12-23T15:34:14.878Z,99658.47
2022-12-23T15:36:46.961Z,99666.03
2022-12-23T15:39:21.196Z,99665.66
2022-12-23T15:41:49.947Z,99664.97
2022-12-23T15:44:22.337Z,99658.44
2022-12-23T15:46:51.035Z,99665.44
2022-12-23T15:49:20.945Z,99664.72
2022-12-23T15:52:13.955Z,99663.59
2022-12-23T15:54:46.633Z,99666.78
2022-12-23T15:57:19.148Z,99657.13
2022-12-23T15:59:47.365Z,99669.69
2022-12-23T16:05:12.480Z,99672.13
2022-12-23T16:07:42.785Z,99669.19
2022-12-23T16:10:15.367Z,99682.53
2022-12-23T16:12:44.595Z,99676.38
2022-12-23T16:15:26.726Z,99684.19
2022-12-23T16:18:13.052Z,99684.28
2022-12-23T16:20:44.589Z,99683.38
2022-12-23T16:23:14.168Z,99678.47
2022-12-23T16:25:50.438Z,99679.69
2022-12-23T16:28:24.186Z,99688.28
2022-12-23T16:30:54.682Z,99686.47
2022-12-23T16:33:35.903Z,99692.69
2022-12-23T16:36:23.606Z,99702.06
2022-12-23T16:38:53.545Z,99709.63
2022-12-23T16:41:21.636Z,99704.28
2022-12-23T16:43:52.799Z,99711.75
2022-12-23T16:46:23.912Z,99709.81
2022-12-23T16:48:53.496Z,99700.88
2022-12-23T16:51:25.935Z,99691.56
2022-12-23T16:53:56.411Z,99682.72
2022-12-23T16:56:28.822Z,99701.06
2022-12-23T16:58:56.762Z,99707.28
2022-12-23T17:01:27.140Z,99717.03
2022-12-23T17:03:55.916Z,99720.56
2022-12-23T17:06:26.202Z,99731.50
2022-12-23T17:08:56.646Z,99736.34
2022-12-23T17:11:30.268Z,99727.13
2022-12-23T17:14:04.110Z,99734.94
2022-12-23T17:16:34.813Z,99736.53
2022-12-23T17:19:02.767Z,99744.44
2022-12-23T17:21:35.126Z,99733.56
2022-12-23T17:24:06.174Z,99739.00
2022-12-23T17:26:34.180Z,99744.88
2022-12-23T17:29:03.854Z,99751.81
2022-12-23T17:31:33.156Z,99758.81
2022-12-23T17:34:01.762Z,99775.22
2022-12-23T17:36:31.094Z,99777.94
2022-12-23T17:38:59.117Z,99774.06
2022-12-23T17:41:30.982Z,99772.59
2022-12-23T17:43:59.766Z,99785.97
2022-12-23T17:46:28.097Z,99786.81
2022-12-23T17:48:57.243Z,99804.72
2022-12-23T17:51:25.334Z,99800.06
2022-12-23T17:53:57.995Z,99808.69
2022-12-23T17:56:28.349Z,99811.84
2022-12-23T17:58:56.357Z,99809.56
2022-12-23T18:01:26.536Z,99806.47
2022-12-23T18:03:55.333Z,99816.34
2022-12-23T18:06:25.159Z,99814.75
2022-12-23T18:08:54.475Z,99812.03
2022-12-23T18:11:24.808Z,99820.19
2022-12-23T18:13:54.075Z,99827.94
2022-12-23T18:16:21.997Z,99826.31
2022-12-23T18:18:49.952Z,99832.13
2022-12-23T18:21:21.969Z,99850.75
2022-12-23T18:23:50.170Z,99840.66
2022-12-23T18:26:19.374Z,99840.66
2022-12-23T18:28:47.226Z,99841.53
2022-12-23T18:31:17.131Z,99843.00
2022-12-23T18:33:45.430Z,99845.31
2022-12-23T18:36:22.181Z,99849.84
2022-12-23T18:38:50.210Z,99856.09
2022-12-23T18:41:20.185Z,99874.03
2022-12-23T18:43:48.435Z,99887.28
2022-12-23T18:46:16.902Z,99881.03
2022-12-23T18:48:44.848Z,99877.41
2022-12-23T18:51:14.848Z,99878.56
2022-12-23T18:53:43.686Z,99891.81
2022-12-23T18:56:14.047Z,99888.75
2022-12-23T18:58:43.543Z,99884.91
2022-12-23T19:01:13.505Z,99895.00
2022-12-23T19:03:41.579Z,99893.06
2022-12-23T19:06:13.093Z,99904.38
2022-12-23T19:08:41.465Z,99897.38
2022-12-23T19:11:13.237Z,99905.97
2022-12-23T19:13:41.612Z,99905.97
2022-12-23T19:16:13.761Z,99899.75
2022-12-23T19:18:41.688Z,99909.91
2022-12-23T19:21:10.042Z,99911.41
2022-12-23T19:23:40.021Z,99917.66
2022-12-23T19:26:08.063Z,99921.94
2022-12-23T19:28:37.661Z,99923.19
2022-12-23T19:31:08.750Z,99927.94
2022-12-23T19:33:39.022Z,99915.91
2022-12-23T19:36:11.292Z,99918.63
2022-12-23T19:38:39.675Z,99916.97
2022-12-23T19:41:07.694Z,99927.03
2022-12-23T19:43:36.126Z,99929.31
2022-12-23T19:46:07.381Z,99933.97
2022-12-23T19:48:35.742Z,99946.34
2022-12-23T19:51:07.810Z,99941.28
2022-12-23T19:53:36.403Z,99944.78
2022-12-23T19:56:06.664Z,99951.34
2022-12-23T19:58:36.141Z,99952.47
2022-12-23T20:01:09.431Z,99962.56
2022-12-23T20:03:37.715Z,99959.06
2022-12-23T20:06:08.431Z,99969.50
2022-12-23T20:08:36.364Z,99971.09
2022-12-23T20:11:06.725Z,99982.41
2022-12-23T20:13:34.736Z,99972.66
2022-12-23T20:16:03.392Z,99979.69
2022-12-23T20:18:31.415Z,99983.13
2022-12-23T20:21:01.132Z,99991.28
2022-12-23T20:23:32.370Z,99994.44
2022-12-23T20:26:01.065Z,99994.69
2022-12-23T20:28:29.206Z,100006.47
2022-12-23T20:31:02.331Z,100002.84
2022-12-23T20:33:30.202Z,100016.91
2022-12-23T20:35:58.067Z,100022.38
2022-12-23T20:38:26.055Z,100030.06
2022-12-23T20:40:55.373Z,100031.56
2022-12-23T20:43:23.255Z,100035.41
2022-12-23T20:45:52.023Z,100035.06
2022-12-23T20:48:21.737Z,100029.84
2022-12-23T20:50:49.809Z,100056.28
2022-12-23T20:53:17.861Z,100049.59
2022-12-23T20:55:45.872Z,100058.09
2022-12-23T20:58:32.590Z,100063.19
2022-12-23T21:01:09.241Z,100066.94
2022-12-23T21:03:37.482Z,100060.03
2022-12-23T21:06:05.851Z,100055.25
2022-12-23T21:08:33.995Z,100068.88
2022-12-23T21:11:01.913Z,100078.06
2022-12-23T21:13:31.453Z,100085.09
2022-12-23T21:16:02.271Z,100081.13
2022-12-23T21:18:30.222Z,100088.38
2022-12-23T21:20:59.888Z,100087.94
2022-12-23T21:23:28.209Z,100089.88
2022-12-23T21:26:08.765Z,100089.75
2022-12-23T21:28:38.185Z,100102.66
2022-12-23T21:31:06.830Z,100099.16
2022-12-23T21:33:37.239Z,100105.50
2022-12-23T21:36:06.214Z,100099.16
2022-12-23T21:38:35.194Z,100106.28
2022-12-23T21:41:04.665Z,100102.44
2022-12-23T21:43:33.277Z,100112.19
2022-12-23T21:46:05.410Z,100119.69
2022-12-23T21:48:35.338Z,100118.53
2022-12-23T21:51:04.601Z,100115.69
2022-12-23T21:53:33.680Z,100134.84
2022-12-23T21:56:03.111Z,100122.84
2022-12-23T21:58:31.061Z,100126.00
2022-12-23T22:00:59.592Z,100132.22
2022-12-23T22:03:29.329Z,100130.78
2022-12-23T22:06:09.909Z,100140.75
2022-12-23T22:08:38.936Z,100150.84
2022-12-23T22:11:08.547Z,100155.03
2022-12-23T22:13:36.820Z,100163.41
2022-12-23T22:16:05.891Z,100157.88
2022-12-23T22:18:35.149Z,100161.25
2022-12-23T22:21:05.648Z,100169.06
2022-12-23T22:23:33.524Z,100181.09
2022-12-23T22:26:01.542Z,100181.44
2022-12-23T22:28:33.709Z,100183.81
2022-12-23T22:31:06.078Z,100184.50
2022-12-23T22:33:36.261Z,100196.97
2022-12-23T22:36:04.084Z,100192.66
2022-12-23T22:38:32.114Z,100199.25
2022-12-23T22:41:00.402Z,100203.06
2022-12-23T22:43:28.376Z,100212.34
2022-12-23T22:45:57.188Z,100204.19
2022-12-23T22:48:25.218Z,100209.63
2022-12-23T22:51:02.961Z,100224.59
2022-12-23T22:53:31.409Z,100226.19
2022-12-23T22:55:59.872Z,100233.88
2022-12-23T22:58:28.748Z,100233.22
2022-12-23T23:00:57.516Z,100242.50
2022-12-23T23:03:26.305Z,100251.47
2022-12-23T23:06:01.142Z,100251.00
2022-12-23T23:08:29.836Z,100239.31
2022-12-23T23:10:58.999Z,100247.47
2022-12-23T23:13:30.043Z,100250.19
2022-12-23T23:15:59.077Z,100255.63
2022-12-23T23:18:28.020Z,100262.88
2022-12-23T23:20:56.276Z,100262.09
2022-12-23T23:23:25.626Z,100264.34
2022-12-23T23:25:53.542Z,100277.13
2022-12-23T23:28:21.391Z,100272.03
2022-12-23T23:30:52.749Z,100278.94
2022-12-23T23:33:31.637Z,100281.78
2022-12-23T23:36:00.501Z,100286.88
2022-12-23T23:38:29.785Z,100271.69
2022-12-23T23:40:58.839Z,100282.56
2022-12-23T23:43:26.912Z,100282.56
2022-12-23T23:45:54.817Z,100294.13
2022-12-23T23:48:23.302Z,100298.91
2022-12-23T23:50:51.180Z,100310.44
2022-12-23T23:53:19.070Z,100313.16
2022-12-23T23:55:48.752Z,100315.44
2022-12-23T23:58:16.596Z,100320.53
